Time;durP1;ratioP1;P1;durP2;ratioP2;P2;SDS_P1;SDS_P2;PMS_P1;PMS_P2;Temp;Humidity;BMP_temperature;BMP_pressure;BME280_temperature;BME280_humidity;BME280_pressure;Samples;Min_cycle;Max_cycle;Signal;HPM_P1;HPM_P2
2020/12/20 00:02:12;;;;;;;9.73;5.95;;;;;;;;;;5048074;28;20028;-76
2020/12/20 00:04:57;;;;;;;12.30;7.03;;;;;;;;;;5051222;28;20111;-77
2020/12/20 00:07:42;;;;;;;11.52;6.00;;;;;;;;;;5045485;28;20028;-78
2020/12/20 00:10:28;;;;;;;10.55;6.30;;;;;;;;;;5040300;28;20051;-77
2020/12/20 00:13:17;;;;;;;10.90;5.78;;;;;;;;;;5048792;28;20206;-78
2020/12/20 00:16:02;;;;;;;16.80;7.35;;;;;;;;;;5050730;28;20020;-78
2020/12/20 00:18:47;;;;;;;11.57;6.50;;;;;;;;;;5050056;28;20029;-78
2020/12/20 00:21:32;;;;;;;11.70;6.78;;;;;;;;;;5054415;28;20040;-78
2020/12/20 00:24:18;;;;;;;11.82;6.50;;;;;;;;;;5044849;28;20111;-77
2020/12/20 00:27:03;;;;;;;14.13;7.03;;;;;;;;;;5044041;28;20032;-77
2020/12/20 00:29:48;;;;;;;11.40;7.03;;;;;;;;;;5042696;28;20304;-76
2020/12/20 00:32:34;;;;;;;11.30;6.82;;;;;;;;;;5049821;28;20036;-77
2020/12/20 00:35:19;;;;;;;13.13;6.68;;;;;;;;;;5040905;28;20104;-77
2020/12/20 00:38:05;;;;;;;11.43;6.38;;;;;;;;;;5048090;28;20589;-77
2020/12/20 00:40:50;;;;;;;14.18;6.80;;;;;;;;;;5045127;28;20063;-77
2020/12/20 00:43:38;;;;;;;10.40;6.43;;;;;;;;;;5042833;28;20108;-77
2020/12/20 00:46:24;;;;;;;12.55;6.38;;;;;;;;;;5047958;28;20515;-77
2020/12/20 00:49:09;;;;;;;10.93;6.20;;;;;;;;;;5040777;28;20037;-76
2020/12/20 00:51:56;;;;;;;10.55;6.43;;;;;;;;;;5039169;28;20031;-77
2020/12/20 00:54:42;;;;;;;10.68;6.63;;;;;;;;;;5047931;28;20032;-77
2020/12/20 00:57:27;;;;;;;12.60;7.22;;;;;;;;;;5043633;28;20090;-77
2020/12/20 01:00:12;;;;;;;10.45;5.90;;;;;;;;;;5043988;28;20085;-77
2020/12/20 01:02:58;;;;;;;10.82;6.03;;;;;;;;;;5052413;28;20017;-77
2020/12/20 01:05:44;;;;;;;13.10;6.38;;;;;;;;;;5045442;28;20048;-77
2020/12/20 01:08:29;;;;;;;13.55;7.10;;;;;;;;;;5047178;28;20100;-77
2020/12/20 01:11:15;;;;;;;13.32;6.90;;;;;;;;;;5039052;28;20029;-76
2020/12/20 01:14:01;;;;;;;12.88;7.22;;;;;;;;;;5049945;28;20028;-77
2020/12/20 01:16:47;;;;;;;14.65;7.32;;;;;;;;;;5046679;28;20032;-76
2020/12/20 01:19:32;;;;;;;11.45;6.32;;;;;;;;;;5045537;28;20039;-77
2020/12/20 01:22:17;;;;;;;9.95;6.13;;;;;;;;;;5046743;28;20044;-77
2020/12/20 01:25:02;;;;;;;13.48;6.30;;;;;;;;;;5041996;28;20052;-78
2020/12/20 01:27:48;;;;;;;8.75;5.53;;;;;;;;;;5044761;28;20031;-78
2020/12/20 01:30:33;;;;;;;10.27;6.15;;;;;;;;;;5032808;28;20312;-78
2020/12/20 01:33:18;;;;;;;11.35;6.30;;;;;;;;;;5046017;28;20032;-77
2020/12/20 01:36:04;;;;;;;11.00;5.78;;;;;;;;;;5049176;28;20017;-78
2020/12/20 01:38:49;;;;;;;9.95;5.95;;;;;;;;;;5047086;28;20027;-78
2020/12/20 01:41:35;;;;;;;14.13;7.38;;;;;;;;;;5045196;28;20032;-78
2020/12/20 01:44:20;;;;;;;11.50;5.38;;;;;;;;;;5047209;28;20042;-78
2020/12/20 01:47:05;;;;;;;9.75;6.00;;;;;;;;;;5048971;28;20024;-77
2020/12/20 01:49:51;;;;;;;11.25;6.88;;;;;;;;;;5043727;28;20036;-78
2020/12/20 01:52:36;;;;;;;10.57;5.70;;;;;;;;;;5034085;28;20131;-78
2020/12/20 01:55:23;;;;;;;11.38;6.72;;;;;;;;;;5030294;28;20028;-77
2020/12/20 01:58:08;;;;;;;11.88;5.97;;;;;;;;;;5044059;28;20085;-77
2020/12/20 02:00:53;;;;;;;12.75;6.25;;;;;;;;;;5049225;28;20134;-78
2020/12/20 02:03:39;;;;;;;11.18;5.93;;;;;;;;;;5050630;28;20134;-77
2020/12/20 02:06:24;;;;;;;11.15;5.97;;;;;;;;;;5048148;28;20444;-76
2020/12/20 02:09:09;;;;;;;12.88;6.43;;;;;;;;;;5052725;28;20028;-76
2020/12/20 02:12:00;;;;;;;10.52;5.82;;;;;;;;;;5049775;28;20386;-77
2020/12/20 02:14:46;;;;;;;10.10;6.15;;;;;;;;;;5046958;28;20025;-77
2020/12/20 02:17:31;;;;;;;10.88;6.45;;;;;;;;;;5049926;28;20139;-77
2020/12/20 02:20:16;;;;;;;11.48;6.10;;;;;;;;;;5050681;28;20029;-77
2020/12/20 02:23:02;;;;;;;11.48;6.35;;;;;;;;;;5051742;28;20230;-77
2020/12/20 02:25:51;;;;;;;10.48;6.28;;;;;;;;;;5050063;28;20091;-77
2020/12/20 02:28:36;;;;;;;12.07;6.57;;;;;;;;;;5056547;28;20013;-77
2020/12/20 02:31:22;;;;;;;12.60;7.20;;;;;;;;;;5044561;28;20032;-77
2020/12/20 02:34:09;;;;;;;9.57;6.35;;;;;;;;;;5046361;28;20028;-76
2020/12/20 02:36:55;;;;;;;11.27;6.75;;;;;;;;;;5045641;28;20067;-77
2020/12/20 02:39:40;;;;;;;10.95;6.40;;;;;;;;;;5049278;28;20028;-76
2020/12/20 02:42:26;;;;;;;13.18;7.07;;;;;;;;;;5048585;28;20021;-78
2020/12/20 02:45:11;;;;;;;9.68;5.95;;;;;;;;;;5050608;28;20039;-76
2020/12/20 02:47:56;;;;;;;11.25;6.30;;;;;;;;;;5053326;28;20025;-76
2020/12/20 02:50:41;;;;;;;13.82;6.47;;;;;;;;;;5044709;28;20020;-76
2020/12/20 02:53:27;;;;;;;12.68;6.90;;;;;;;;;;5060539;28;20029;-76
2020/12/20 02:56:13;;;;;;;12.05;6.28;;;;;;;;;;5044891;28;20127;-77
2020/12/20 02:58:58;;;;;;;12.45;6.85;;;;;;;;;;5044262;28;20107;-77
2020/12/20 03:01:43;;;;;;;9.68;6.20;;;;;;;;;;5048013;28;20036;-77
2020/12/20 03:04:28;;;;;;;10.32;5.95;;;;;;;;;;5048829;28;20131;-78
2020/12/20 03:07:14;;;;;;;11.50;5.78;;;;;;;;;;5048450;28;20024;-77
2020/12/20 03:09:59;;;;;;;10.60;6.10;;;;;;;;;;5047334;28;20033;-77
2020/12/20 03:12:45;;;;;;;11.65;6.97;;;;;;;;;;5051786;28;20031;-77
2020/12/20 03:15:30;;;;;;;10.10;6.18;;;;;;;;;;5044211;28;20115;-75
2020/12/20 03:18:15;;;;;;;11.38;6.75;;;;;;;;;;5050396;28;20040;-76
2020/12/20 03:21:00;;;;;;;12.38;6.30;;;;;;;;;;5043385;28;20679;-77
2020/12/20 03:23:46;;;;;;;17.98;6.50;;;;;;;;;;5050515;28;20025;-76
2020/12/20 03:26:31;;;;;;;11.48;6.20;;;;;;;;;;5045880;28;20025;-77
2020/12/20 03:29:16;;;;;;;15.10;6.63;;;;;;;;;;5047668;28;20394;-77
2020/12/20 03:32:01;;;;;;;10.73;5.63;;;;;;;;;;5048163;28;20025;-77
2020/12/20 03:34:46;;;;;;;9.60;6.00;;;;;;;;;;5049196;28;20474;-77
2020/12/20 03:37:32;;;;;;;13.15;6.60;;;;;;;;;;5051699;28;20107;-77
2020/12/20 03:40:18;;;;;;;17.20;6.85;;;;;;;;;;5046985;28;20042;-77
2020/12/20 03:43:03;;;;;;;14.20;6.32;;;;;;;;;;5045861;28;20024;-77
2020/12/20 03:45:48;;;;;;;9.20;5.80;;;;;;;;;;5044774;28;20375;-76
2020/12/20 03:48:34;;;;;;;12.90;6.85;;;;;;;;;;5047547;28;20045;-77
2020/12/20 03:51:19;;;;;;;11.48;6.55;;;;;;;;;;5044229;28;20036;-77
2020/12/20 03:54:04;;;;;;;10.50;6.00;;;;;;;;;;5040330;28;20013;-77
2020/12/20 03:56:52;;;;;;;10.50;6.43;;;;;;;;;;5050222;28;20052;-77
2020/12/20 03:59:39;;;;;;;10.88;6.28;;;;;;;;;;5041844;28;20025;-77
2020/12/20 04:02:24;;;;;;;10.02;5.55;;;;;;;;;;5045292;28;20426;-76
2020/12/20 04:05:09;;;;;;;12.25;6.65;;;;;;;;;;5044130;28;20053;-77
2020/12/20 04:07:55;;;;;;;9.60;5.78;;;;;;;;;;5043734;28;20601;-77
2020/12/20 04:10:40;;;;;;;11.73;6.50;;;;;;;;;;5050598;28;20120;-77
2020/12/20 04:13:25;;;;;;;10.35;6.25;;;;;;;;;;5043251;28;20023;-79
2020/12/20 04:16:10;;;;;;;10.18;6.43;;;;;;;;;;5042653;28;20017;-77
2020/12/20 04:18:56;;;;;;;10.85;6.80;;;;;;;;;;5042345;28;20353;-77
2020/12/20 04:21:41;;;;;;;11.50;6.72;;;;;;;;;;5044329;28;20041;-77
2020/12/20 04:24:26;;;;;;;13.63;6.85;;;;;;;;;;5047696;28;20034;-76
2020/12/20 04:27:11;;;;;;;11.65;7.05;;;;;;;;;;5050580;28;20025;-77
2020/12/20 04:29:58;;;;;;;10.68;6.65;;;;;;;;;;5041908;28;20028;-77
2020/12/20 04:32:43;;;;;;;12.15;7.07;;;;;;;;;;5045323;28;20033;-77
2020/12/20 04:35:28;;;;;;;13.52;6.93;;;;;;;;;;5048405;28;20020;-77
2020/12/20 04:38:13;;;;;;;10.65;6.88;;;;;;;;;;5047441;28;20040;-78
2020/12/20 04:40:59;;;;;;;9.45;6.05;;;;;;;;;;5046386;28;20025;-78
2020/12/20 04:43:44;;;;;;;11.23;6.78;;;;;;;;;;5052277;28;20071;-76
2020/12/20 04:46:30;;;;;;;9.35;6.28;;;;;;;;;;5049466;28;20067;-77
2020/12/20 04:49:15;;;;;;;13.20;6.22;;;;;;;;;;5043283;28;20036;-77
2020/12/20 04:52:00;;;;;;;9.60;6.40;;;;;;;;;;5040842;28;20027;-76
2020/12/20 04:54:46;;;;;;;10.18;6.53;;;;;;;;;;5047135;28;20025;-78
2020/12/20 04:57:34;;;;;;;13.07;6.95;;;;;;;;;;5048659;28;20021;-78
2020/12/20 05:00:20;;;;;;;12.80;7.00;;;;;;;;;;5044439;28;20700;-76
2020/12/20 05:03:05;;;;;;;13.45;6.60;;;;;;;;;;5045165;28;20471;-77
2020/12/20 05:05:50;;;;;;;10.73;6.13;;;;;;;;;;5036146;28;20092;-77
2020/12/20 05:08:36;;;;;;;10.50;6.28;;;;;;;;;;5048596;28;20016;-77
2020/12/20 05:11:31;;;;;;;10.93;5.55;;;;;;;;;;5039816;28;20067;-77
2020/12/20 05:14:16;;;;;;;11.63;6.53;;;;;;;;;;5052528;28;20019;-77
2020/12/20 05:17:01;;;;;;;9.85;6.13;;;;;;;;;;5031726;28;20021;-77
2020/12/20 05:19:47;;;;;;;10.10;6.22;;;;;;;;;;5042593;28;20056;-77
2020/12/20 05:22:32;;;;;;;10.52;6.25;;;;;;;;;;5042719;28;20497;-77
2020/12/20 05:25:18;;;;;;;15.45;7.55;;;;;;;;;;5045995;28;20031;-76
2020/12/20 05:28:13;;;;;;;14.07;6.90;;;;;;;;;;5052111;28;20032;-78
2020/12/20 05:31:06;;;;;;;12.82;6.43;;;;;;;;;;5048291;28;20024;-77
2020/12/20 05:33:51;;;;;;;10.70;7.10;;;;;;;;;;5046295;28;20386;-76
2020/12/20 05:36:36;;;;;;;10.13;6.18;;;;;;;;;;5047515;28;20050;-77
2020/12/20 05:39:22;;;;;;;11.43;7.32;;;;;;;;;;5054747;28;20528;-77
2020/12/20 05:42:07;;;;;;;10.05;6.43;;;;;;;;;;5045804;28;20032;-76
2020/12/20 05:45:03;;;;;;;9.73;6.53;;;;;;;;;;5055889;28;20050;-77
2020/12/20 05:47:48;;;;;;;9.68;6.32;;;;;;;;;;5046290;28;20032;-76
2020/12/20 05:50:33;;;;;;;11.55;6.70;;;;;;;;;;5043357;28;20090;-77
2020/12/20 05:53:29;;;;;;;10.45;6.15;;;;;;;;;;5047870;28;20020;-79
2020/12/20 05:56:16;;;;;;;10.88;7.00;;;;;;;;;;5053835;28;20043;-76
2020/12/20 05:59:10;;;;;;;13.98;7.63;;;;;;;;;;5047257;28;20028;-77
2020/12/20 06:01:55;;;;;;;14.45;7.22;;;;;;;;;;5053807;28;20032;-76
2020/12/20 06:04:41;;;;;;;11.32;7.00;;;;;;;;;;5049187;28;20044;-77
2020/12/20 06:07:27;;;;;;;10.60;6.68;;;;;;;;;;5047042;28;20482;-76
2020/12/20 06:10:14;;;;;;;10.30;6.47;;;;;;;;;;5049514;28;20083;-76
2020/12/20 06:13:02;;;;;;;11.43;6.70;;;;;;;;;;5047582;28;20468;-77
2020/12/20 06:15:51;;;;;;;10.50;6.50;;;;;;;;;;5055418;28;20033;-76
2020/12/20 06:18:44;;;;;;;12.20;7.03;;;;;;;;;;5045315;28;20020;-76
2020/12/20 06:21:44;;;;;;;11.27;7.03;;;;;;;;;;5064454;28;20021;-76
2020/12/20 06:24:35;;;;;;;10.57;7.15;;;;;;;;;;5033432;28;20191;-76
2020/12/20 06:27:21;;;;;;;12.30;7.10;;;;;;;;;;5050021;28;20021;-77
2020/12/20 06:30:07;;;;;;;13.23;6.68;;;;;;;;;;5045815;28;20146;-77
2020/12/20 06:32:55;;;;;;;12.95;7.60;;;;;;;;;;5052483;28;20036;-78
2020/12/20 06:35:41;;;;;;;10.68;6.47;;;;;;;;;;5048917;28;20036;-77
2020/12/20 06:38:26;;;;;;;8.77;6.28;;;;;;;;;;5045057;28;20118;-78
2020/12/20 06:41:11;;;;;;;12.73;6.68;;;;;;;;;;5054650;28;20067;-78
2020/12/20 06:43:56;;;;;;;11.75;6.60;;;;;;;;;;5041886;28;20462;-77
2020/12/20 06:46:43;;;;;;;10.98;6.85;;;;;;;;;;5054475;28;20533;-78
2020/12/20 06:49:35;;;;;;;9.13;6.15;;;;;;;;;;5046700;28;20025;-77
2020/12/20 06:52:22;;;;;;;9.15;5.93;;;;;;;;;;5048977;28;20020;-77
2020/12/20 06:55:09;;;;;;;9.00;5.97;;;;;;;;;;5046740;28;20565;-77
2020/12/20 06:58:08;;;;;;;12.35;6.68;;;;;;;;;;5046458;28;20028;-77
2020/12/20 07:00:54;;;;;;;10.48;6.40;;;;;;;;;;5043588;28;20529;-77
2020/12/20 07:03:40;;;;;;;10.07;6.63;;;;;;;;;;5047332;28;20032;-78
2020/12/20 07:06:25;;;;;;;10.75;6.18;;;;;;;;;;5046811;28;20386;-78
2020/12/20 07:09:11;;;;;;;12.73;6.38;;;;;;;;;;5041752;28;20024;-77
2020/12/20 07:11:56;;;;;;;11.43;6.72;;;;;;;;;;5046464;28;20020;-77
2020/12/20 07:14:42;;;;;;;10.35;6.32;;;;;;;;;;5050336;28;20036;-77
2020/12/20 07:17:29;;;;;;;13.27;6.80;;;;;;;;;;5048570;28;20074;-77
2020/12/20 07:20:14;;;;;;;10.68;6.38;;;;;;;;;;5046151;28;20116;-77
2020/12/20 07:23:00;;;;;;;12.52;6.55;;;;;;;;;;5044590;28;20375;-77
2020/12/20 07:25:46;;;;;;;22.80;14.85;;;;;;;;;;5049737;28;20501;-77
2020/12/20 07:28:31;;;;;;;15.05;10.57;;;;;;;;;;5052128;28;20027;-77
2020/12/20 07:31:17;;;;;;;11.15;7.50;;;;;;;;;;5047949;28;20381;-77
2020/12/20 07:34:04;;;;;;;11.32;7.05;;;;;;;;;;5046250;28;20090;-77
2020/12/20 07:36:50;;;;;;;13.43;6.82;;;;;;;;;;5045506;28;20078;-77
2020/12/20 07:39:35;;;;;;;10.82;6.55;;;;;;;;;;5044555;28;20043;-77
2020/12/20 07:42:20;;;;;;;9.88;6.40;;;;;;;;;;5044040;28;20032;-77
2020/12/20 07:45:05;;;;;;;11.55;6.47;;;;;;;;;;5051003;28;20101;-78
2020/12/20 07:47:51;;;;;;;9.85;6.35;;;;;;;;;;5047617;28;20024;-77
2020/12/20 07:50:36;;;;;;;10.40;6.32;;;;;;;;;;5052039;28;20074;-78
2020/12/20 07:53:21;;;;;;;12.55;7.32;;;;;;;;;;5049690;28;20077;-79
2020/12/20 07:56:06;;;;;;;12.02;6.88;;;;;;;;;;5046747;28;20509;-76
2020/12/20 07:58:56;;;;;;;9.68;6.20;;;;;;;;;;5043537;28;20032;-78
2020/12/20 08:01:44;;;;;;;14.50;7.53;;;;;;;;;;5038437;28;20055;-77
2020/12/20 08:04:30;;;;;;;11.63;6.55;;;;;;;;;;5047893;28;20059;-78
2020/12/20 08:07:15;;;;;;;11.82;7.15;;;;;;;;;;5051085;28;20021;-78
2020/12/20 08:10:00;;;;;;;25.60;18.45;;;;;;;;;;5049387;28;20399;-77
2020/12/20 08:12:51;;;;;;;15.80;9.77;;;;;;;;;;5046401;28;20387;-77
2020/12/20 08:15:37;;;;;;;11.57;7.80;;;;;;;;;;5040617;28;20054;-77
2020/12/20 08:18:22;;;;;;;12.68;6.95;;;;;;;;;;5042438;28;20035;-79
2020/12/20 08:21:08;;;;;;;13.07;7.90;;;;;;;;;;5045590;28;20028;-76
2020/12/20 08:23:55;;;;;;;13.07;6.72;;;;;;;;;;5044114;28;20032;-76
2020/12/20 08:26:41;;;;;;;11.93;7.03;;;;;;;;;;5051753;28;20035;-77
2020/12/20 08:29:26;;;;;;;14.07;7.45;;;;;;;;;;5043965;28;20027;-77
2020/12/20 08:32:12;;;;;;;14.23;8.13;;;;;;;;;;5038603;28;20040;-78
2020/12/20 08:35:10;;;;;;;14.02;6.78;;;;;;;;;;5045919;28;20029;-78
2020/12/20 08:37:57;;;;;;;12.85;6.93;;;;;;;;;;5045214;28;20040;-76
2020/12/20 08:40:42;;;;;;;14.98;7.53;;;;;;;;;;5043489;28;20033;-76
2020/12/20 08:43:27;;;;;;;13.65;7.68;;;;;;;;;;5047167;28;20043;-77
2020/12/20 08:46:29;;;;;;;13.52;8.02;;;;;;;;;;5044067;28;20019;-77
2020/12/20 08:49:19;;;;;;;13.68;8.32;;;;;;;;;;5044831;28;20029;-77
2020/12/20 08:52:05;;;;;;;15.77;7.80;;;;;;;;;;5045124;28;20119;-77
2020/12/20 08:54:51;;;;;;;16.67;7.55;;;;;;;;;;5045945;28;20021;-77
2020/12/20 08:57:36;;;;;;;12.30;6.90;;;;;;;;;;5041919;28;20021;-76
2020/12/20 09:00:21;;;;;;;42.95;29.10;;;;;;;;;;5044890;28;20021;-76
2020/12/20 09:03:06;;;;;;;14.68;9.30;;;;;;;;;;5044054;28;20040;-76
2020/12/20 09:05:52;;;;;;;12.85;7.78;;;;;;;;;;5044576;28;20040;-78
2020/12/20 09:08:37;;;;;;;12.30;7.32;;;;;;;;;;5050282;28;20037;-78
2020/12/20 09:11:23;;;;;;;13.30;7.47;;;;;;;;;;5039180;28;20052;-77
2020/12/20 09:14:09;;;;;;;12.57;7.07;;;;;;;;;;5047746;28;20028;-78
2020/12/20 09:16:56;;;;;;;10.18;7.30;;;;;;;;;;5049047;28;20475;-78
2020/12/20 09:19:41;;;;;;;10.45;7.05;;;;;;;;;;5044560;28;20028;-77
2020/12/20 09:22:42;;;;;;;10.85;6.72;;;;;;;;;;5051141;28;20020;-76
2020/12/20 09:25:31;;;;;;;10.88;6.63;;;;;;;;;;5046104;28;20033;-77
2020/12/20 09:28:20;;;;;;;14.32;8.45;;;;;;;;;;5049098;28;20017;-78
2020/12/20 09:31:13;;;;;;;10.93;7.00;;;;;;;;;;5049722;28;20502;-78
2020/12/20 09:34:01;;;;;;;9.90;7.18;;;;;;;;;;5043758;28;20525;-78
2020/12/20 09:36:46;;;;;;;12.95;6.70;;;;;;;;;;5043724;28;20020;-78
2020/12/20 09:39:31;;;;;;;13.25;6.70;;;;;;;;;;5046172;28;20081;-78
2020/12/20 09:42:16;;;;;;;10.63;6.55;;;;;;;;;;5042017;28;20025;-77
2020/12/20 09:45:02;;;;;;;19.15;12.25;;;;;;;;;;5047529;28;20433;-79
2020/12/20 09:47:53;;;;;;;18.08;12.88;;;;;;;;;;5040428;28;20043;-77
2020/12/20 09:50:39;;;;;;;12.20;7.97;;;;;;;;;;5047006;28;20047;-78
2020/12/20 09:53:24;;;;;;;10.32;7.00;;;;;;;;;;5047889;28;20478;-77
2020/12/20 09:56:09;;;;;;;11.60;7.20;;;;;;;;;;5034213;28;20486;-76
2020/12/20 09:58:55;;;;;;;16.30;7.75;;;;;;;;;;5042775;28;20363;-76
2020/12/20 10:01:40;;;;;;;10.77;7.53;;;;;;;;;;5043164;28;20553;-77
2020/12/20 10:04:25;;;;;;;13.30;8.32;;;;;;;;;;5045583;28;20044;-77
2020/12/20 10:07:10;;;;;;;14.70;7.65;;;;;;;;;;5042059;28;20047;-77
2020/12/20 10:09:55;;;;;;;12.93;8.45;;;;;;;;;;5046098;28;20090;-77
2020/12/20 10:12:41;;;;;;;13.85;8.35;;;;;;;;;;5045520;28;20056;-76
2020/12/20 10:15:26;;;;;;;11.65;7.80;;;;;;;;;;5043505;28;20021;-77
2020/12/20 10:18:12;;;;;;;14.27;7.72;;;;;;;;;;5039097;28;20031;-76
2020/12/20 10:20:57;;;;;;;13.70;7.88;;;;;;;;;;5048206;28;20040;-77
2020/12/20 10:23:42;;;;;;;14.32;8.25;;;;;;;;;;5043413;28;20391;-76
2020/12/20 10:26:27;;;;;;;12.80;8.02;;;;;;;;;;5050050;28;20128;-77
2020/12/20 10:29:14;;;;;;;11.20;8.32;;;;;;;;;;5059931;28;20613;-77
2020/12/20 10:31:59;;;;;;;14.63;8.10;;;;;;;;;;5044620;28;20036;-76
2020/12/20 10:34:45;;;;;;;13.90;9.30;;;;;;;;;;5042015;28;20031;-76
2020/12/20 10:37:30;;;;;;;18.23;10.55;;;;;;;;;;5047574;28;20033;-77
2020/12/20 10:40:15;;;;;;;21.52;9.32;;;;;;;;;;5047802;28;20086;-78
2020/12/20 10:43:00;;;;;;;18.00;9.52;;;;;;;;;;5043093;28;20069;-76
2020/12/20 10:45:46;;;;;;;17.83;9.32;;;;;;;;;;5046205;28;20029;-76
2020/12/20 10:48:31;;;;;;;11.88;8.23;;;;;;;;;;5042940;28;20036;-76
2020/12/20 10:51:19;;;;;;;16.08;8.43;;;;;;;;;;5052415;28;20066;-77
2020/12/20 10:54:05;;;;;;;16.45;8.52;;;;;;;;;;5059822;28;20032;-78
2020/12/20 10:56:50;;;;;;;14.30;9.15;;;;;;;;;;5049833;28;20030;-78
2020/12/20 10:59:35;;;;;;;11.70;7.47;;;;;;;;;;5031254;28;20036;-78
2020/12/20 11:02:21;;;;;;;14.25;7.97;;;;;;;;;;5048188;28;20551;-76
2020/12/20 11:05:06;;;;;;;12.88;7.93;;;;;;;;;;5028034;28;20737;-78
2020/12/20 11:07:54;;;;;;;13.70;8.73;;;;;;;;;;5024439;28;20032;-77
2020/12/20 11:10:39;;;;;;;12.63;8.05;;;;;;;;;;5025463;28;20086;-76
2020/12/20 11:13:25;;;;;;;17.90;9.18;;;;;;;;;;5027652;28;20032;-77
2020/12/20 11:16:15;;;;;;;15.85;8.75;;;;;;;;;;5008771;28;20021;-77
2020/12/20 11:19:00;;;;;;;14.90;8.63;;;;;;;;;;5013385;28;20480;-77
2020/12/20 11:21:52;;;;;;;12.30;7.65;;;;;;;;;;5024582;28;20053;-77
2020/12/20 11:24:38;;;;;;;15.10;9.15;;;;;;;;;;5024528;28;20561;-78
2020/12/20 11:27:47;;;;;;;12.25;8.43;;;;;;;;;;5024449;28;20029;-78
2020/12/20 11:30:32;;;;;;;16.80;8.65;;;;;;;;;;5021453;28;20033;-79
2020/12/20 11:33:17;;;;;;;16.88;9.93;;;;;;;;;;5027368;28;20029;-78
2020/12/20 11:36:03;;;;;;;22.02;14.15;;;;;;;;;;5024802;28;20028;-77
2020/12/20 11:38:49;;;;;;;24.05;12.85;;;;;;;;;;5024436;28;20475;-78
2020/12/20 11:41:34;;;;;;;17.42;10.95;;;;;;;;;;5011601;28;20826;-77
2020/12/20 11:44:21;;;;;;;14.27;9.98;;;;;;;;;;5029324;28;20024;-77
2020/12/20 11:47:06;;;;;;;20.70;9.20;;;;;;;;;;5023460;28;20036;-78
2020/12/20 11:49:51;;;;;;;14.32;8.73;;;;;;;;;;5030587;28;20056;-78
2020/12/20 11:52:37;;;;;;;13.50;7.88;;;;;;;;;;5027334;28;20035;-78
2020/12/20 11:55:22;;;;;;;13.63;7.32;;;;;;;;;;5028020;28;20029;-79
2020/12/20 11:58:16;;;;;;;13.95;7.63;;;;;;;;;;5021854;28;20025;-77
2020/12/20 12:01:01;;;;;;;12.23;6.60;;;;;;;;;;5023116;28;20384;-78
2020/12/20 12:03:47;;;;;;;13.23;7.65;;;;;;;;;;5028578;28;20020;-78
2020/12/20 12:06:32;;;;;;;10.80;6.40;;;;;;;;;;5022769;28;20032;-77
2020/12/20 12:09:17;;;;;;;10.75;6.57;;;;;;;;;;5022097;28;20445;-77
2020/12/20 12:12:02;;;;;;;11.25;6.28;;;;;;;;;;5021606;28;20064;-77
2020/12/20 12:14:48;;;;;;;14.30;6.38;;;;;;;;;;5027853;28;20021;-80
2020/12/20 12:17:33;;;;;;;13.73;7.07;;;;;;;;;;5025848;28;20626;-77
2020/12/20 12:20:18;;;;;;;13.70;9.35;;;;;;;;;;5023040;28;20032;-77
2020/12/20 12:23:04;;;;;;;12.88;8.20;;;;;;;;;;5022763;28;20171;-78
2020/12/20 12:25:49;;;;;;;12.95;7.35;;;;;;;;;;5022680;28;20152;-77
2020/12/20 12:28:34;;;;;;;14.18;8.30;;;;;;;;;;5021325;28;20025;-77
2020/12/20 12:31:20;;;;;;;12.45;8.02;;;;;;;;;;5025916;28;20056;-78
2020/12/20 12:34:05;;;;;;;11.68;7.60;;;;;;;;;;5025724;28;20120;-78
2020/12/20 12:36:50;;;;;;;16.02;10.68;;;;;;;;;;5022992;28;20483;-78
2020/12/20 12:39:35;;;;;;;14.48;8.85;;;;;;;;;;5019010;28;20128;-78
2020/12/20 12:42:21;;;;;;;14.95;8.93;;;;;;;;;;5025544;28;20044;-78
2020/12/20 12:45:06;;;;;;;17.58;7.97;;;;;;;;;;5028669;28;20037;-77
2020/12/20 12:47:51;;;;;;;14.05;8.25;;;;;;;;;;5024390;28;20028;-79
2020/12/20 12:50:37;;;;;;;16.15;8.32;;;;;;;;;;5019383;28;20255;-78
2020/12/20 12:53:22;;;;;;;17.55;8.40;;;;;;;;;;5023075;28;20032;-79
2020/12/20 12:56:10;;;;;;;12.43;8.48;;;;;;;;;;5026943;28;20475;-78
2020/12/20 12:58:55;;;;;;;11.80;8.40;;;;;;;;;;5018151;28;20045;-78
2020/12/20 13:01:41;;;;;;;15.30;9.45;;;;;;;;;;5017489;28;20530;-77
2020/12/20 13:04:26;;;;;;;14.45;8.45;;;;;;;;;;5034070;28;20060;-77
2020/12/20 13:07:11;;;;;;;13.90;8.77;;;;;;;;;;5057807;28;20020;-77
2020/12/20 13:09:56;;;;;;;15.02;8.90;;;;;;;;;;5041893;28;20024;-78
2020/12/20 13:12:42;;;;;;;14.15;8.38;;;;;;;;;;5043003;28;20103;-78
2020/12/20 13:15:27;;;;;;;13.05;8.63;;;;;;;;;;5044677;28;20031;-78
2020/12/20 13:18:12;;;;;;;12.07;8.18;;;;;;;;;;5046508;28;20043;-77
2020/12/20 13:20:58;;;;;;;12.13;7.57;;;;;;;;;;5059318;28;20035;-77
2020/12/20 13:23:44;;;;;;;12.68;8.05;;;;;;;;;;5045969;28;20039;-77
2020/12/20 13:26:29;;;;;;;12.27;8.38;;;;;;;;;;5049448;28;20479;-77
2020/12/20 13:29:15;;;;;;;15.40;8.95;;;;;;;;;;5023612;28;20434;-79
2020/12/20 13:32:00;;;;;;;13.20;8.43;;;;;;;;;;5044970;28;20024;-77
2020/12/20 13:34:46;;;;;;;13.23;8.38;;;;;;;;;;5041647;28;20024;-79
2020/12/20 13:37:31;;;;;;;18.13;8.50;;;;;;;;;;5045959;28;20367;-78
2020/12/20 13:40:16;;;;;;;11.75;8.52;;;;;;;;;;5044535;28;20028;-78
2020/12/20 13:43:02;;;;;;;13.50;8.10;;;;;;;;;;5043279;28;20028;-78
2020/12/20 13:45:47;;;;;;;14.85;8.23;;;;;;;;;;5042192;28;20642;-78
2020/12/20 13:48:32;;;;;;;15.95;10.00;;;;;;;;;;5045152;28;20012;-77
2020/12/20 13:51:18;;;;;;;13.20;9.00;;;;;;;;;;5042318;28;20579;-77
2020/12/20 13:54:03;;;;;;;12.75;8.23;;;;;;;;;;5044451;28;20190;-78
2020/12/20 13:56:48;;;;;;;12.10;7.30;;;;;;;;;;5038730;28;20021;-79
2020/12/20 13:59:34;;;;;;;12.40;8.25;;;;;;;;;;5050333;28;20483;-79
2020/12/20 14:02:19;;;;;;;18.02;8.57;;;;;;;;;;5046145;28;20048;-78
2020/12/20 14:05:04;;;;;;;13.40;8.63;;;;;;;;;;5046265;28;20053;-79
2020/12/20 14:07:49;;;;;;;13.80;8.63;;;;;;;;;;5045788;28;20028;-79
2020/12/20 14:10:35;;;;;;;13.10;9.55;;;;;;;;;;5049215;28;20032;-80
2020/12/20 14:13:20;;;;;;;17.88;10.18;;;;;;;;;;5047631;28;20169;-78
2020/12/20 14:16:06;;;;;;;13.43;8.90;;;;;;;;;;5043724;28;20036;-79
2020/12/20 14:18:51;;;;;;;15.18;8.55;;;;;;;;;;5047907;28;20071;-78
2020/12/20 14:21:36;;;;;;;14.32;9.23;;;;;;;;;;5044322;28;20107;-79
2020/12/20 14:24:21;;;;;;;12.35;8.90;;;;;;;;;;5049816;28;20024;-78
2020/12/20 14:27:09;;;;;;;15.55;9.10;;;;;;;;;;5043673;28;20119;-79
2020/12/20 14:29:54;;;;;;;17.05;8.98;;;;;;;;;;5049917;28;20025;-80
2020/12/20 14:32:40;;;;;;;14.98;8.63;;;;;;;;;;5046018;28;20050;-78
2020/12/20 14:35:25;;;;;;;14.80;8.65;;;;;;;;;;5044441;28;20394;-77
2020/12/20 14:38:10;;;;;;;13.48;8.88;;;;;;;;;;5046778;28;20019;-80
2020/12/20 14:40:56;;;;;;;11.77;8.13;;;;;;;;;;5047130;28;20036;-79
2020/12/20 14:43:41;;;;;;;13.15;8.30;;;;;;;;;;5042429;28;20112;-78
2020/12/20 14:46:26;;;;;;;11.80;7.93;;;;;;;;;;5048516;28;20032;-77
2020/12/20 14:49:11;;;;;;;10.40;7.78;;;;;;;;;;5045997;28;20035;-78
2020/12/20 14:51:57;;;;;;;12.82;7.78;;;;;;;;;;5048320;28;20048;-77
2020/12/20 14:54:42;;;;;;;10.55;7.63;;;;;;;;;;5049846;28;20525;-79
2020/12/20 14:57:30;;;;;;;25.73;17.50;;;;;;;;;;5042285;28;20052;-78
2020/12/20 15:00:16;;;;;;;42.45;28.58;;;;;;;;;;5050241;28;20016;-79
2020/12/20 15:03:01;;;;;;;15.48;9.40;;;;;;;;;;5037499;28;20108;-77
2020/12/20 15:05:46;;;;;;;15.38;8.70;;;;;;;;;;5045989;28;20032;-77
2020/12/20 15:09:05;;;;;;;;;;;;;;;;;;;;;
2020/12/20 15:11:59;;;;;;;14.07;8.27;;;;;;;;;;5035444;28;20064;-78
2020/12/20 15:14:46;;;;;;;14.18;8.35;;;;;;;;;;5042459;28;20021;-78
2020/12/20 15:17:31;;;;;;;12.85;8.70;;;;;;;;;;5043715;28;20032;-79
2020/12/20 15:20:17;;;;;;;12.88;8.50;;;;;;;;;;5043201;28;20020;-79
2020/12/20 15:23:37;;;;;;;17.55;8.35;;;;;;;;;;5045686;28;20036;-78
2020/12/20 15:26:20;;;;;;;12.93;7.97;;;;;;;;;;5045014;28;20035;-78
2020/12/20 15:29:06;;;;;;;15.32;8.60;;;;;;;;;;5026653;28;20360;-79
2020/12/20 15:31:57;;;;;;;17.23;8.52;;;;;;;;;;5042603;28;20751;-80
2020/12/20 15:34:44;;;;;;;15.15;8.90;;;;;;;;;;5039563;28;20078;-81
2020/12/20 15:37:29;;;;;;;13.27;8.85;;;;;;;;;;5047087;28;20588;-79
2020/12/20 15:40:15;;;;;;;14.07;9.63;;;;;;;;;;5046107;28;20062;-79
2020/12/20 15:43:00;;;;;;;12.27;8.57;;;;;;;;;;5043211;28;20013;-81
2020/12/20 15:45:45;;;;;;;13.95;8.35;;;;;;;;;;5040085;28;20020;-79
2020/12/20 15:48:30;;;;;;;15.10;8.55;;;;;;;;;;5047374;28;20027;-79
2020/12/20 15:51:19;;;;;;;54.75;40.55;;;;;;;;;;5045732;28;20032;-80
2020/12/20 15:54:04;;;;;;;24.77;17.30;;;;;;;;;;5038124;28;20029;-78
2020/12/20 15:56:50;;;;;;;25.58;15.40;;;;;;;;;;5045362;28;20016;-79
2020/12/20 15:59:38;;;;;;;27.80;18.65;;;;;;;;;;5044970;28;20017;-78
2020/12/20 16:02:24;;;;;;;24.10;13.35;;;;;;;;;;5041994;28;20024;-77
2020/12/20 16:05:10;;;;;;;20.02;11.23;;;;;;;;;;5044667;28;20092;-79
2020/12/20 16:07:55;;;;;;;15.73;9.77;;;;;;;;;;5050380;28;20111;-79
2020/12/20 16:10:40;;;;;;;18.58;10.23;;;;;;;;;;5046093;28;20367;-79
2020/12/20 16:13:31;;;;;;;14.23;9.38;;;;;;;;;;5047716;28;20025;-80
2020/12/20 16:16:23;;;;;;;19.58;12.70;;;;;;;;;;5039502;28;20021;-79
2020/12/20 16:19:08;;;;;;;14.25;10.60;;;;;;;;;;5050807;28;20107;-79
2020/12/20 16:21:54;;;;;;;16.42;10.43;;;;;;;;;;5038300;28;20040;-78
2020/12/20 16:24:39;;;;;;;15.73;10.10;;;;;;;;;;5051158;28;20036;-79